createdAt,value
2016-07-08T00:03:52.937Z,19.75
2016-07-08T00:08:52.324Z,19.75
2016-07-08T00:13:52.319Z,19.74
2016-07-08T00:18:52.315Z,19.74
2016-07-08T00:23:52.904Z,19.8
2016-07-08T00:28:52.292Z,19.78
2016-07-08T00:33:52.903Z,19.79
2016-07-08T00:38:52.883Z,19.79
2016-07-08T00:43:52.882Z,19.74
2016-07-08T00:48:52.269Z,19.7
2016-07-08T00:53:52.875Z,19.71
2016-07-08T00:58:52.854Z,19.64
2016-07-08T01:03:52.857Z,19.65
2016-07-08T01:08:52.840Z,19.65
2016-07-08T01:13:52.240Z,19.65
2016-07-08T01:18:52.832Z,19.57
2016-07-08T01:23:52.818Z,19.57
2016-07-08T01:28:52.813Z,19.61
2016-07-08T01:33:52.804Z,19.55
2016-07-08T01:38:52.197Z,19.42
2016-07-08T01:43:52.786Z,19.47
2016-07-08T01:48:52.779Z,19.47
2016-07-08T01:53:52.175Z,19.42
2016-07-08T01:58:52.164Z,19.4
2016-07-08T02:03:52.156Z,19.46
2016-07-08T02:08:52.149Z,19.3
2016-07-08T02:13:52.742Z,19.25
2016-07-08T02:18:52.734Z,19.43
2016-07-08T02:23:52.739Z,19.42
2016-07-08T02:28:52.115Z,19.34
2016-07-08T02:33:52.712Z,19.34
2016-07-08T02:38:52.705Z,19.37
2016-07-08T02:43:52.687Z,19.42
2016-07-08T02:48:52.681Z,19.35
2016-07-08T02:53:52.065Z,19.32
2016-07-08T02:58:52.057Z,19.32
2016-07-08T03:03:52.050Z,19.32
2016-07-08T03:08:52.644Z,19.38
2016-07-08T03:13:52.640Z,19.37
2016-07-08T03:18:52.622Z,19.27
2016-07-08T03:23:52.012Z,19.34
2016-07-08T03:28:52.008Z,19.23
2016-07-08T03:33:52.598Z,19.3
2016-07-08T03:38:51.991Z,19.34
2016-07-08T03:43:51.980Z,19.47
2016-07-08T03:48:52.579Z,19.47
2016-07-08T03:53:51.966Z,19.57
2016-07-08T03:58:51.959Z,19.64
2016-07-08T04:03:52.552Z,19.68
2016-07-08T04:08:52.543Z,19.56
2016-07-08T04:13:51.927Z,19.61
2016-07-08T04:18:51.926Z,19.65
2016-07-08T04:23:51.917Z,19.78
2016-07-08T04:28:52.507Z,19.72
2016-07-08T04:33:52.509Z,19.74
2016-07-08T04:38:51.891Z,19.8
2016-07-08T04:43:52.487Z,19.95
2016-07-08T04:48:51.874Z,19.8
2016-07-08T04:53:52.472Z,19.68
2016-07-08T04:58:52.463Z,19.63
2016-07-08T05:03:52.454Z,19.79
2016-07-08T05:08:52.443Z,19.87
2016-07-08T05:13:51.228Z,19.85
2016-07-08T05:18:52.435Z,19.83
2016-07-08T05:23:51.812Z,19.97
2016-07-08T05:28:52.415Z,20.2
2016-07-08T05:33:51.795Z,20.54
2016-07-08T05:38:52.393Z,20.98
2016-07-08T05:43:51.785Z,21.38
2016-07-08T05:48:51.783Z,21.83
2016-07-08T05:53:52.386Z,22.46
2016-07-08T05:58:52.382Z,23.44
2016-07-08T06:03:51.167Z,23.64
2016-07-08T06:08:52.377Z,22.89
2016-07-08T06:13:52.372Z,23.52
2016-07-08T06:18:52.374Z,23.62
2016-07-08T06:23:52.377Z,23.21
2016-07-08T06:28:51.768Z,23.06
2016-07-08T06:33:52.371Z,23.03
2016-07-08T06:38:52.377Z,22.7
2016-07-08T06:43:52.373Z,22.52
2016-07-08T06:48:51.769Z,22.22
2016-07-08T06:53:51.776Z,22.33
2016-07-08T06:58:52.367Z,22.27
2016-07-08T07:03:51.757Z,22.26
2016-07-08T07:08:51.758Z,22.29
2016-07-08T07:13:52.361Z,22.16
2016-07-08T07:18:51.756Z,22.11
2016-07-08T07:23:51.757Z,22.04
2016-07-08T07:28:51.772Z,21.92
2016-07-08T07:33:52.355Z,21.82
2016-07-08T07:38:51.761Z,21.85
2016-07-08T07:43:51.753Z,21.83
2016-07-08T07:48:52.357Z,22.05
2016-07-08T07:53:51.149Z,22.33
2016-07-08T07:58:51.144Z,22.48
2016-07-08T08:03:52.363Z,22.73
2016-07-08T08:08:52.362Z,22.86
2016-07-08T08:13:51.753Z,22.99
2016-07-08T08:18:52.354Z,23.66
2016-07-08T08:23:51.756Z,24.29
2016-07-08T08:28:51.754Z,24.08
2016-07-08T08:33:52.362Z,23.96
2016-07-08T08:38:52.362Z,23.66
2016-07-08T08:43:52.360Z,23.25
2016-07-08T08:48:52.366Z,23.38
2016-07-08T08:53:52.363Z,23.15
2016-07-08T08:58:52.369Z,23.04
2016-07-08T09:03:51.762Z,22.69
2016-07-08T09:08:51.765Z,22.75
2016-07-08T09:13:51.759Z,22.7
2016-07-08T09:18:52.367Z,22.7
2016-07-08T09:23:52.369Z,22.99
2016-07-08T09:28:51.763Z,22.84
2016-07-08T09:33:52.359Z,22.75
2016-07-08T09:38:52.367Z,22.84
2016-07-08T09:43:52.366Z,22.99
2016-07-08T09:48:52.361Z,22.94
2016-07-08T09:53:51.761Z,22.86
2016-07-08T09:58:52.362Z,22.96
2016-07-08T10:03:51.758Z,23
2016-07-08T10:08:52.367Z,22.85
2016-07-08T10:13:51.773Z,22.89
2016-07-08T10:18:52.365Z,22.86
2016-07-08T10:23:51.767Z,22.84
2016-07-08T10:28:52.372Z,22.88
2016-07-08T10:33:51.764Z,23.09
2016-07-08T10:38:51.783Z,23.12
2016-07-08T10:43:51.766Z,23.06
2016-07-08T10:48:52.377Z,22.86
2016-07-08T10:53:51.771Z,22.81
2016-07-08T10:58:52.373Z,22.81
2016-07-08T11:03:51.165Z,23.03
2016-07-08T11:08:52.386Z,23
2016-07-08T11:13:52.375Z,23.24
2016-07-08T11:18:52.386Z,23.12
2016-07-08T11:23:52.385Z,22.97
2016-07-08T11:28:52.399Z,23.18
2016-07-08T11:33:52.380Z,22.71
2016-07-08T11:38:52.379Z,22.64
2016-07-08T11:43:52.383Z,22.75
2016-07-08T11:48:51.793Z,22.59
2016-07-08T11:53:51.778Z,22.6
2016-07-08T11:58:51.186Z,22.34
2016-07-08T12:03:52.385Z,22.29
2016-07-08T12:08:51.784Z,22.29
2016-07-08T12:13:52.386Z,22.42
2016-07-08T12:18:52.390Z,22.55
2016-07-08T12:26:01.012Z,22.79
2016-07-08T12:31:01.618Z,24.24
2016-07-08T12:36:01.619Z,24.67
2016-07-08T12:41:01.015Z,24.07
2016-07-08T12:46:00.414Z,24.34
2016-07-08T12:51:00.414Z,24.07
2016-07-08T12:56:01.626Z,23.56
2016-07-08T13:01:00.421Z,23.34
2016-07-08T13:06:01.628Z,23.07
2016-07-08T13:11:01.636Z,22.88
2016-07-08T13:16:01.026Z,23.38
2016-07-08T13:21:01.634Z,23.79
2016-07-08T13:26:01.037Z,23.44
2016-07-08T13:31:01.036Z,23.44
2016-07-08T13:36:01.036Z,23.28
2016-07-08T13:41:01.041Z,23.1
2016-07-08T13:46:01.023Z,23.1
2016-07-08T13:51:00.985Z,23.62
2016-07-08T13:56:01.551Z,23.52
2016-07-08T14:01:01.528Z,23.74
2016-07-08T14:06:00.885Z,23.74
2016-07-08T14:11:00.850Z,23.57
2016-07-08T14:16:00.964Z,23.42
2016-07-08T14:21:01.380Z,23.03
2016-07-08T14:26:00.739Z,23.03
2016-07-08T14:31:00.703Z,22.97
2016-07-08T14:36:01.272Z,22.82
2016-07-08T14:41:00.634Z,23.28
2016-07-08T14:46:00.600Z,23.96
2016-07-08T14:51:01.172Z,24.26
2016-07-08T14:56:00.529Z,24.3
2016-07-08T15:01:01.106Z,24.51
2016-07-08T21:00:54.866Z,19.25
2016-07-08T21:24:52.208Z,19.16
2016-07-08T21:29:52.199Z,19.07
2016-07-08T21:34:52.193Z,19.02
2016-07-08T21:39:51.569Z,19.02
2016-07-08T21:44:52.159Z,18.84
2016-07-08T21:49:51.541Z,18.96
2016-07-08T21:54:52.135Z,18.86
2016-07-08T21:59:52.123Z,18.79
2016-07-08T22:04:51.503Z,18.84
2016-07-08T22:09:52.103Z,18.81
2016-07-08T22:14:51.477Z,18.66
2016-07-08T22:19:51.465Z,18.71
2016-07-08T22:24:50.850Z,18.71
2016-07-08T22:29:50.833Z,18.68
2016-07-08T22:34:51.419Z,18.66
2016-07-08T22:39:52.015Z,18.66
2016-07-08T22:44:52.004Z,18.72
2016-07-08T22:49:51.991Z,18.69
2016-07-08T22:54:51.971Z,18.72
2016-07-08T22:59:51.969Z,18.75
2016-07-08T23:04:51.951Z,18.81
2016-07-08T23:09:51.936Z,18.76
2016-07-08T23:14:51.316Z,18.81
2016-07-08T23:19:51.916Z,18.78
2016-07-08T23:24:51.905Z,18.74
2016-07-08T23:29:51.886Z,18.81
2016-07-08T23:34:51.871Z,18.76
2016-07-08T23:39:51.256Z,18.71
2016-07-08T23:44:51.855Z,18.74
2016-07-08T23:49:51.835Z,18.69
2016-07-08T23:54:51.828Z,18.74
2016-07-08T23:59:51.814Z,18.66
